This is the latest recevied weather packets stored in our database for station/object JA0BES-13. If no packets are shown the sender has not sent any weather packets the latest 10 day(s).
| Time | Temp. | Humidity | Pressure | Rain* | Wind** | Luminosity | Snow |
|---|---|---|---|---|---|---|---|
| 1777238864 | 12.78° C | 100% | 1008.4 hPa | 4.06 mm | - | - | - |
| 1777238263 | 12.78° C | 100% | 1008.5 hPa | 3.81 mm | - | - | - |
| 1777237663 | 12.78° C | 100% | 1008.4 hPa | 3.3 mm | - | - | - |
| 1777205844 | 16.67° C | 66% | 1012.6 hPa | 0 mm | - | - | - |
| 1777205244 | 16.67° C | 67% | 1012.7 hPa | 0 mm | - | - | - |
| 1777204041 | 17.22° C | 66% | 1012.9 hPa | 0 mm | - | - | - |
| 1777203441 | 17.22° C | 65% | 1012.9 hPa | 0 mm | - | - | - |
| 1777202841 | 17.22° C | 65% | 1013 hPa | 0 mm | - | - | - |
| 1777202240 | 17.22° C | 65% | 1013 hPa | 0 mm | - | - | - |
| 1777201640 | 17.22° C | 65% | 1013.1 hPa | 0 mm | - | - | - |
| 1777201039 | 17.78° C | 65% | 1013.1 hPa | 0 mm | - | - | - |
| 1777200439 | 17.78° C | 64% | 1013.2 hPa | 0 mm | - | - | - |
| 1777199839 | 17.78° C | 65% | 1013.1 hPa | 0 mm | - | - | - |
| 1777199238 | 17.78° C | 64% | 1013 hPa | 0 mm | - | - | - |
| 1777198638 | 18.33° C | 63% | 1012.9 hPa | 0 mm | - | - | - |
| 1777198038 | 18.89° C | 62% | 1012.9 hPa | 0 mm | - | - | - |
| 1777197437 | 18.89° C | 61% | 1012.9 hPa | 0 mm | - | - | - |
| 1777196837 | 18.89° C | 60% | 1012.7 hPa | 0 mm | - | - | - |
| 1777196236 | 18.89° C | 61% | 1012.4 hPa | 0 mm | - | - | - |
| 1777195636 | 19.44° C | 60% | 1012.2 hPa | 0 mm | - | - | - |
| 1777195036 | 19.44° C | 59% | 1012.3 hPa | 0 mm | - | - | - |
| 1777194436 | 19.44° C | 57% | 1012 hPa | 0 mm | - | - | - |
| 1777193835 | 20° C | 56% | 1011.8 hPa | 0 mm | - | - | - |
| 1777193235 | 20.56° C | 55% | 1011.8 hPa | 0 mm | - | - | - |
| 1777192634 | 20.56° C | 55% | 1011.6 hPa | 0 mm | - | - | - |
* Rain since midnight (hover to see other rain measurements)
** Current wind speed in m/s (hover to see current wind gust speed)